createdAt,value
2019-05-21T00:02:24.527Z,11.09
2019-05-21T00:04:53.022Z,11.08
2019-05-21T00:07:21.504Z,10.98
2019-05-21T00:09:50.023Z,10.91
2019-05-21T00:12:18.496Z,10.83
2019-05-21T00:14:46.999Z,10.77
2019-05-21T00:17:15.477Z,10.80
2019-05-21T00:19:44.056Z,10.83
2019-05-21T00:22:12.531Z,10.81
2019-05-21T00:24:41.064Z,10.56
2019-05-21T00:27:09.524Z,10.56
2019-05-21T00:30:13.789Z,10.65
2019-05-21T00:33:18.228Z,10.56
2019-05-21T00:36:24.071Z,10.52
2019-05-21T00:39:28.583Z,10.46
2019-05-21T00:42:05.139Z,10.51
2019-05-21T00:44:42.862Z,10.54
2019-05-21T00:47:12.508Z,10.48
2019-05-21T00:49:41.057Z,10.43
2019-05-21T00:52:09.870Z,10.51
2019-05-21T00:54:38.443Z,10.44
2019-05-21T00:57:06.923Z,10.47
2019-05-21T00:59:35.430Z,10.47
2019-05-21T01:02:03.966Z,10.51
2019-05-21T01:04:32.480Z,10.49
2019-05-21T01:07:00.929Z,10.58
2019-05-21T01:09:29.424Z,10.54
2019-05-21T01:11:57.900Z,10.54
2019-05-21T01:14:26.406Z,10.40
2019-05-21T01:16:54.880Z,10.22
2019-05-21T01:19:23.374Z,10.37
2019-05-21T01:21:51.958Z,10.48
2019-05-21T01:24:20.538Z,10.62
2019-05-21T01:26:49.006Z,10.55
2019-05-21T01:29:17.487Z,10.72
2019-05-21T01:31:45.983Z,11.00
2019-05-21T01:34:14.472Z,11.14
2019-05-21T01:36:42.966Z,11.16
2019-05-21T01:39:11.809Z,10.94
2019-05-21T01:41:40.378Z,10.82
2019-05-21T01:44:08.849Z,10.48
2019-05-21T01:46:37.348Z,10.00
2019-05-21T01:49:05.889Z,10.24
2019-05-21T01:51:34.387Z,10.22
2019-05-21T01:54:02.859Z,10.20
2019-05-21T01:56:31.353Z,10.20
2019-05-21T01:58:59.839Z,10.08
2019-05-21T02:01:28.412Z,10.21
2019-05-21T02:03:56.892Z,10.21
2019-05-21T02:06:25.565Z,10.15
2019-05-21T02:08:54.039Z,9.93
2019-05-21T02:11:22.534Z,10.07
2019-05-21T02:13:51.018Z,10.07
2019-05-21T02:16:19.579Z,10.04
2019-05-21T02:18:48.140Z,9.94
2019-05-21T02:21:16.661Z,9.94
2019-05-21T02:23:45.134Z,9.92
2019-05-21T02:26:13.632Z,9.80
2019-05-21T02:28:42.117Z,9.67
2019-05-21T02:31:10.681Z,9.51
2019-05-21T02:33:39.148Z,9.54
2019-05-21T02:36:07.706Z,9.72
2019-05-21T02:38:36.175Z,9.72
2019-05-21T02:41:04.906Z,9.54
2019-05-21T02:43:33.376Z,9.44
2019-05-21T02:46:01.849Z,9.64
2019-05-21T02:48:30.333Z,9.76
2019-05-21T02:50:58.815Z,9.80
2019-05-21T02:53:27.306Z,9.67
2019-05-21T02:55:55.780Z,9.60
2019-05-21T02:58:24.278Z,9.57
2019-05-21T03:00:59.812Z,9.42
2019-05-21T03:03:30.077Z,9.51
2019-05-21T03:06:13.385Z,9.02
2019-05-21T03:08:28.755Z,9.18
2019-05-21T03:10:57.225Z,9.24
2019-05-21T03:13:25.713Z,9.23
2019-05-21T03:15:54.189Z,9.15
2019-05-21T03:18:22.757Z,9.28
2019-05-21T03:20:51.229Z,9.28
2019-05-21T03:23:19.725Z,9.29
2019-05-21T03:25:48.190Z,9.31
2019-05-21T03:28:16.676Z,9.22
2019-05-21T03:30:45.145Z,9.13
2019-05-21T03:33:13.638Z,9.17
2019-05-21T03:35:42.171Z,9.25
2019-05-21T03:38:10.668Z,9.21
2019-05-21T03:40:39.143Z,9.36
2019-05-21T03:43:07.633Z,9.44
2019-05-21T03:45:36.105Z,9.27
2019-05-21T03:48:04.662Z,9.14
2019-05-21T03:50:33.128Z,9.13
2019-05-21T03:53:01.889Z,9.39
2019-05-21T03:55:30.361Z,9.57
2019-05-21T03:57:58.843Z,9.60
2019-05-21T04:00:27.316Z,9.64
2019-05-21T04:02:55.813Z,9.78
2019-05-21T04:05:25.515Z,9.73
2019-05-21T04:07:54.143Z,9.79
2019-05-21T04:10:22.849Z,9.82
2019-05-21T04:13:06.752Z,9.90
2019-05-21T04:15:38.481Z,9.93
2019-05-21T04:18:08.675Z,9.94
2019-05-21T04:20:37.151Z,10.17
2019-05-21T04:23:05.630Z,10.39
2019-05-21T04:25:34.124Z,10.38
2019-05-21T04:28:02.599Z,10.20
2019-05-21T04:30:31.096Z,10.42
2019-05-21T04:32:59.573Z,10.54
2019-05-21T04:35:28.065Z,10.69
2019-05-21T04:37:56.542Z,10.78
2019-05-21T04:40:25.047Z,10.87
2019-05-21T04:42:53.524Z,10.93
2019-05-21T04:45:22.019Z,11.06
2019-05-21T04:47:50.484Z,11.27
2019-05-21T04:50:18.988Z,11.37
2019-05-21T04:52:47.466Z,11.53
2019-05-21T04:55:15.961Z,11.84
2019-05-21T04:57:44.446Z,12.36
2019-05-21T05:00:13.479Z,12.52
2019-05-21T05:02:41.952Z,12.66
2019-05-21T05:05:10.694Z,12.80
2019-05-21T05:07:39.167Z,13.00
2019-05-21T05:10:08.006Z,13.28
2019-05-21T05:12:36.493Z,13.32
2019-05-21T05:15:07.122Z,13.42
2019-05-21T05:17:35.611Z,13.59
2019-05-21T05:20:05.148Z,13.78
2019-05-21T05:22:33.780Z,13.79
2019-05-21T05:25:02.321Z,13.85
2019-05-21T05:27:30.792Z,13.97
2019-05-21T05:29:59.292Z,14.14
2019-05-21T05:32:27.845Z,14.28
2019-05-21T05:34:56.344Z,14.37
2019-05-21T05:37:24.815Z,14.39
2019-05-21T05:39:53.311Z,14.51
2019-05-21T05:42:21.775Z,14.54
2019-05-21T05:44:50.274Z,14.67
2019-05-21T05:47:18.743Z,14.87
2019-05-21T05:49:48.888Z,14.99
2019-05-21T05:52:17.343Z,15.01
2019-05-21T05:54:45.835Z,14.93
2019-05-21T05:57:14.298Z,15.11
2019-05-21T05:59:42.788Z,15.23
2019-05-21T06:02:11.263Z,15.29
2019-05-21T06:04:39.758Z,15.42
2019-05-21T06:07:08.223Z,15.55
2019-05-21T06:09:36.693Z,15.70
2019-05-21T06:12:05.260Z,15.76
2019-05-21T06:14:33.726Z,15.74
2019-05-21T06:17:02.500Z,15.81
2019-05-21T06:19:31.164Z,15.99
2019-05-21T06:21:59.656Z,16.09
2019-05-21T06:24:28.135Z,16.12
2019-05-21T06:26:56.627Z,16.16
2019-05-21T06:29:25.093Z,16.35
2019-05-21T06:31:53.604Z,16.46
2019-05-21T06:34:22.060Z,16.62
2019-05-21T06:36:50.568Z,16.73
2019-05-21T06:39:19.035Z,16.89
2019-05-21T06:41:47.529Z,16.78
2019-05-21T06:44:15.994Z,16.90
2019-05-21T06:46:44.495Z,17.02
2019-05-21T06:49:12.990Z,16.90
2019-05-21T06:51:41.543Z,17.09
2019-05-21T06:54:10.024Z,17.26
2019-05-21T06:56:38.510Z,17.34
2019-05-21T06:59:06.983Z,17.53
2019-05-21T07:01:35.474Z,17.46
2019-05-21T07:04:03.953Z,17.48
2019-05-21T07:06:32.449Z,17.30
2019-05-21T07:09:00.917Z,17.07
2019-05-21T07:11:29.413Z,17.01
2019-05-21T07:13:57.892Z,16.99
2019-05-21T07:16:26.383Z,17.11
2019-05-21T07:18:54.849Z,17.30
2019-05-21T07:21:23.320Z,17.33
2019-05-21T07:23:51.818Z,17.30
2019-05-21T07:26:20.379Z,17.35
2019-05-21T07:28:48.863Z,17.47
2019-05-21T07:31:17.731Z,17.82
2019-05-21T07:33:46.291Z,17.71
2019-05-21T07:36:14.767Z,17.80
2019-05-21T07:38:53.234Z,17.95
2019-05-21T07:41:13.461Z,18.17
2019-05-21T07:43:41.986Z,18.04
2019-05-21T07:46:10.513Z,18.10
2019-05-21T07:48:39.012Z,18.12
2019-05-21T07:51:07.484Z,18.34
2019-05-21T07:53:35.992Z,18.33
2019-05-21T07:56:04.535Z,18.35
2019-05-21T07:58:33.035Z,18.54
2019-05-21T08:01:01.883Z,18.84
2019-05-21T08:03:30.399Z,19.05
2019-05-21T08:05:58.873Z,19.26
2019-05-21T08:08:27.379Z,19.77
2019-05-21T08:10:55.957Z,20.10
2019-05-21T08:13:24.432Z,19.98
2019-05-21T08:15:52.992Z,20.18
2019-05-21T08:18:21.494Z,20.66
2019-05-21T08:20:49.971Z,20.41
2019-05-21T08:23:18.466Z,20.41
2019-05-21T08:25:46.934Z,20.44
2019-05-21T08:28:15.430Z,20.14
2019-05-21T08:30:43.904Z,20.71
2019-05-21T08:33:12.407Z,20.69
2019-05-21T08:35:40.876Z,20.90
2019-05-21T08:38:09.442Z,20.86
2019-05-21T08:40:37.932Z,20.93
2019-05-21T08:43:06.498Z,20.89
2019-05-21T08:45:34.971Z,20.96
2019-05-21T08:48:03.477Z,20.64
2019-05-21T08:50:32.026Z,20.67
2019-05-21T08:53:00.520Z,21.01
2019-05-21T08:55:28.990Z,21.48
2019-05-21T08:58:07.073Z,21.80
2019-05-21T09:00:28.117Z,21.82
2019-05-21T09:02:56.671Z,22.00
2019-05-21T09:05:25.208Z,22.07
2019-05-21T09:07:54.245Z,21.89
2019-05-21T09:10:22.773Z,21.54
2019-05-21T09:12:51.241Z,21.29
2019-05-21T09:15:20.005Z,21.20
2019-05-21T09:17:49.321Z,21.22
2019-05-21T09:20:19.959Z,21.42
2019-05-21T09:22:48.552Z,21.67
2019-05-21T09:25:17.043Z,21.71
2019-05-21T09:27:45.506Z,21.27
2019-05-21T09:30:14.745Z,21.40
2019-05-21T09:32:43.263Z,21.50
2019-05-21T09:35:12.044Z,21.77
2019-05-21T09:37:40.516Z,21.92
2019-05-21T09:40:10.152Z,21.96
2019-05-21T09:42:39.198Z,22.46
2019-05-21T09:45:08.443Z,22.44
2019-05-21T09:47:36.995Z,22.07
2019-05-21T09:50:07.769Z,22.05
2019-05-21T09:52:36.370Z,22.22
2019-05-21T09:55:06.507Z,22.68
2019-05-21T09:57:49.136Z,22.66
2019-05-21T10:00:34.876Z,22.76
2019-05-21T10:03:05.421Z,23.14
2019-05-21T10:05:33.925Z,23.34
2019-05-21T10:08:02.471Z,21.92
2019-05-21T10:10:31.123Z,22.26
2019-05-21T10:12:59.575Z,23.14
2019-05-21T10:15:28.073Z,23.25
2019-05-21T10:17:56.542Z,23.57
2019-05-21T10:20:25.046Z,24.12
2019-05-21T10:22:53.573Z,23.48
2019-05-21T10:25:22.131Z,22.00
2019-05-21T10:27:50.595Z,23.23
2019-05-21T10:30:19.241Z,23.20
2019-05-21T10:32:47.722Z,25.31
2019-05-21T10:35:16.206Z,26.65
2019-05-21T10:37:54.510Z,27.07
2019-05-21T10:40:15.103Z,27.06
2019-05-21T10:42:43.727Z,27.69
2019-05-21T10:45:12.664Z,29.26
2019-05-21T10:47:41.128Z,30.00
2019-05-21T10:50:09.866Z,31.78
2019-05-21T10:52:38.348Z,30.27
2019-05-21T10:55:06.973Z,27.96
2019-05-21T10:57:35.455Z,27.08
2019-05-21T11:00:08.789Z,25.36
2019-05-21T11:02:38.897Z,25.15
2019-05-21T11:05:12.473Z,25.40
2019-05-21T11:07:40.944Z,25.17
2019-05-21T11:10:09.955Z,25.73
2019-05-21T11:12:38.536Z,26.68
2019-05-21T11:15:07.837Z,28.50
2019-05-21T11:17:53.334Z,31.25
2019-05-21T11:20:07.149Z,31.31
2019-05-21T11:22:35.601Z,27.55
2019-05-21T11:25:05.541Z,28.64
2019-05-21T11:27:34.008Z,31.18
2019-05-21T11:30:02.577Z,32.64
2019-05-21T11:32:31.047Z,30.87
2019-05-21T11:34:59.580Z,31.18
2019-05-21T11:37:28.052Z,32.76
2019-05-21T11:39:56.534Z,32.90
2019-05-21T11:42:25.095Z,32.31
2019-05-21T11:44:53.564Z,32.44
2019-05-21T11:47:22.057Z,32.82
2019-05-21T11:49:50.540Z,31.61
2019-05-21T11:52:19.046Z,30.49
2019-05-21T11:54:47.510Z,30.01
2019-05-21T11:57:16.014Z,30.31
2019-05-21T11:59:44.486Z,31.51
2019-05-21T12:02:13.539Z,32.95
2019-05-21T12:04:42.040Z,34.35
2019-05-21T12:07:10.571Z,32.71
2019-05-21T12:09:39.048Z,32.73
2019-05-21T12:12:07.559Z,34.97
2019-05-21T12:14:36.048Z,35.32
2019-05-21T12:17:04.615Z,32.54
2019-05-21T12:19:33.076Z,29.77
2019-05-21T12:22:01.656Z,27.92
2019-05-21T12:24:30.127Z,26.75
2019-05-21T12:26:58.626Z,26.07
2019-05-21T12:29:27.105Z,25.57
2019-05-21T12:31:55.598Z,27.52
2019-05-21T12:34:24.065Z,31.72
2019-05-21T12:36:52.558Z,34.40
2019-05-21T12:39:21.023Z,32.95
2019-05-21T12:41:49.515Z,34.00
2019-05-21T12:44:18.001Z,32.94
2019-05-21T12:46:46.553Z,34.07
2019-05-21T12:49:15.018Z,34.31
2019-05-21T12:51:43.596Z,33.85
2019-05-21T12:54:12.158Z,34.66
2019-05-21T12:56:41.250Z,36.64
2019-05-21T12:59:09.800Z,38.84
2019-05-21T13:01:38.302Z,37.30
2019-05-21T13:04:06.780Z,38.19
2019-05-21T13:06:35.325Z,38.13
2019-05-21T13:09:08.103Z,39.37
2019-05-21T13:11:36.180Z,40.04
2019-05-21T13:14:04.992Z,38.04
2019-05-21T13:16:33.529Z,37.78
2019-05-21T13:19:02.022Z,37.96
2019-05-21T13:21:30.513Z,35.44
2019-05-21T13:23:59.798Z,35.64
2019-05-21T13:26:28.275Z,35.49
2019-05-21T13:28:56.761Z,35.45
2019-05-21T13:31:25.228Z,36.00
2019-05-21T13:33:53.733Z,34.49
2019-05-21T13:36:22.275Z,34.18
2019-05-21T13:38:50.782Z,37.40
2019-05-21T13:41:19.482Z,38.54
2019-05-21T13:43:48.064Z,38.39
2019-05-21T13:46:16.532Z,37.53
2019-05-21T13:48:47.040Z,38.71
2019-05-21T13:51:15.233Z,40.05
2019-05-21T13:53:43.731Z,36.48
2019-05-21T13:56:12.302Z,34.87
2019-05-21T13:58:40.829Z,33.14
2019-05-21T14:01:09.744Z,30.65
2019-05-21T14:03:38.317Z,28.85
2019-05-21T14:06:06.929Z,28.96
2019-05-21T14:08:35.592Z,31.13
2019-05-21T14:11:04.238Z,33.31
2019-05-21T14:13:32.839Z,32.16
2019-05-21T14:16:01.418Z,33.83
2019-05-21T14:18:29.880Z,33.67
2019-05-21T14:20:58.346Z,34.53
2019-05-21T14:23:26.840Z,34.25
2019-05-21T14:25:55.380Z,34.37
2019-05-21T14:28:23.872Z,35.25
2019-05-21T14:30:52.375Z,34.21
2019-05-21T14:33:20.922Z,33.87
2019-05-21T14:35:49.388Z,31.73
2019-05-21T14:38:17.873Z,31.39
2019-05-21T14:40:46.346Z,32.11
2019-05-21T14:43:14.837Z,32.54
2019-05-21T14:45:43.301Z,32.95
2019-05-21T14:48:11.797Z,32.88
2019-05-21T14:50:40.269Z,34.48
2019-05-21T14:53:08.858Z,35.31
2019-05-21T14:55:37.504Z,36.02
2019-05-21T14:58:05.990Z,35.52
2019-05-21T15:00:37.932Z,34.86
2019-05-21T15:03:06.401Z,34.21
2019-05-21T15:05:35.613Z,31.61
2019-05-21T15:08:05.125Z,29.45
2019-05-21T15:10:47.308Z,28.72
2019-05-21T15:13:06.115Z,29.81
2019-05-21T15:15:34.985Z,29.16
2019-05-21T15:18:03.738Z,29.01
2019-05-21T15:20:37.010Z,29.56
2019-05-21T15:23:05.542Z,29.01
2019-05-21T15:25:34.101Z,28.92
2019-05-21T15:28:02.570Z,29.62
2019-05-21T15:30:31.061Z,29.01
2019-05-21T15:32:59.535Z,30.71
2019-05-21T15:35:28.035Z,30.88
2019-05-21T15:37:56.502Z,30.98
2019-05-21T15:40:25.066Z,31.49
2019-05-21T15:42:53.932Z,31.61
2019-05-21T15:45:22.846Z,31.95
2019-05-21T15:47:51.323Z,33.34
2019-05-21T15:50:19.965Z,34.36
2019-05-21T15:52:48.451Z,31.99
2019-05-21T15:55:16.944Z,31.92
2019-05-21T15:57:45.417Z,30.64
2019-05-21T16:00:14.711Z,31.94
2019-05-21T16:02:43.183Z,32.95
2019-05-21T16:05:12.212Z,32.85
2019-05-21T16:07:40.683Z,33.13
2019-05-21T16:10:09.517Z,30.64
2019-05-21T16:12:37.994Z,29.65
2019-05-21T16:15:07.587Z,27.67
2019-05-21T16:17:36.067Z,27.94
2019-05-21T16:20:06.801Z,29.05
2019-05-21T16:22:35.271Z,30.69
2019-05-21T16:25:07.879Z,29.46
2019-05-21T16:27:36.360Z,29.92
2019-05-21T16:30:07.935Z,29.98
2019-05-21T16:32:36.419Z,28.97
2019-05-21T16:35:07.520Z,28.92
2019-05-21T16:37:36.058Z,26.80
2019-05-21T16:40:06.595Z,24.93
2019-05-21T16:42:35.067Z,25.46
2019-05-21T16:45:05.071Z,25.06
2019-05-21T16:47:44.499Z,23.55
2019-05-21T16:50:06.030Z,24.62
2019-05-21T16:52:34.830Z,24.51
2019-05-21T16:55:04.189Z,24.37
2019-05-21T16:57:32.741Z,25.58
2019-05-21T17:00:01.319Z,26.54
2019-05-21T17:02:29.795Z,27.31
2019-05-21T17:04:58.289Z,27.16
2019-05-21T17:07:26.766Z,27.74
2019-05-21T17:09:55.256Z,27.99
2019-05-21T17:12:23.831Z,27.68
2019-05-21T17:14:52.300Z,25.80
2019-05-21T17:17:20.790Z,24.34
2019-05-21T17:19:49.260Z,24.34
2019-05-21T17:22:17.756Z,24.13
2019-05-21T17:24:46.236Z,23.50
2019-05-21T17:27:14.735Z,23.34
2019-05-21T17:29:43.211Z,23.74
2019-05-21T17:32:11.731Z,23.98
2019-05-21T17:34:40.212Z,23.30
2019-05-21T17:37:08.727Z,22.45
2019-05-21T17:39:37.278Z,21.48
2019-05-21T17:42:15.118Z,20.82
2019-05-21T17:44:36.662Z,20.49
2019-05-21T17:47:05.151Z,20.32
2019-05-21T17:49:33.616Z,20.15
2019-05-21T17:52:02.106Z,20.09
2019-05-21T17:54:30.585Z,20.12
2019-05-21T17:56:59.157Z,20.19
2019-05-21T17:59:27.622Z,20.31
2019-05-21T18:01:56.338Z,20.25
2019-05-21T18:04:25.950Z,20.10
2019-05-21T18:06:54.595Z,19.91
2019-05-21T18:09:23.507Z,19.97
2019-05-21T18:11:51.987Z,19.92
2019-05-21T18:14:20.529Z,20.05
2019-05-21T18:16:49.203Z,20.06
2019-05-21T18:19:18.100Z,19.98
2019-05-21T18:21:46.591Z,20.00
2019-05-21T18:24:15.079Z,20.06
2019-05-21T18:26:43.879Z,19.96
2019-05-21T18:29:12.411Z,20.02
2019-05-21T18:31:40.984Z,20.01
2019-05-21T18:34:09.594Z,19.92
2019-05-21T18:36:38.302Z,19.84
2019-05-21T18:39:06.873Z,19.71
2019-05-21T18:41:35.568Z,19.67
2019-05-21T18:44:04.312Z,19.59
2019-05-21T18:46:32.794Z,19.53
2019-05-21T18:49:01.288Z,19.57
2019-05-21T18:51:29.753Z,19.55
2019-05-21T18:53:58.244Z,19.49
2019-05-21T18:56:26.722Z,19.37
2019-05-21T18:58:55.234Z,19.32
2019-05-21T19:01:24.141Z,19.35
2019-05-21T19:03:52.636Z,19.39
2019-05-21T19:06:21.277Z,19.48
2019-05-21T19:08:49.958Z,19.31
2019-05-21T19:11:18.505Z,19.07
2019-05-21T19:13:47.242Z,19.16
2019-05-21T19:16:15.709Z,19.33
2019-05-21T19:18:44.294Z,19.49
2019-05-21T19:21:12.779Z,19.32
2019-05-21T19:23:41.294Z,19.48
2019-05-21T19:26:09.835Z,19.33
2019-05-21T19:28:38.414Z,18.96
2019-05-21T19:31:06.893Z,19.19
2019-05-21T19:33:35.374Z,19.24
2019-05-21T19:36:03.869Z,18.75
2019-05-21T19:38:32.367Z,18.39
2019-05-21T19:41:00.843Z,18.14
2019-05-21T19:43:29.508Z,18.27
2019-05-21T19:45:57.982Z,18.25
2019-05-21T19:48:26.616Z,18.21
2019-05-21T19:50:55.089Z,18.39
2019-05-21T19:53:23.598Z,18.23
2019-05-21T19:55:52.525Z,18.13
2019-05-21T19:58:20.994Z,17.87
2019-05-21T20:00:53.856Z,17.87
2019-05-21T20:03:22.491Z,18.07
2019-05-21T20:05:51.383Z,18.00
2019-05-21T20:08:20.337Z,18.05
2019-05-21T20:10:48.841Z,18.06
2019-05-21T20:13:25.063Z,18.09
2019-05-21T20:15:47.679Z,17.86
2019-05-21T20:18:16.487Z,18.08
2019-05-21T20:20:45.049Z,18.05
2019-05-21T20:23:13.871Z,18.10
2019-05-21T20:25:55.433Z,18.26
2019-05-21T20:28:13.101Z,18.16
2019-05-21T20:30:44.729Z,18.32
2019-05-21T20:33:12.740Z,18.49
2019-05-21T20:35:41.852Z,18.33
2019-05-21T20:38:10.614Z,18.17
2019-05-21T20:40:40.245Z,18.18
2019-05-21T20:43:08.948Z,18.21
2019-05-21T20:45:39.965Z,18.05
2019-05-21T20:48:08.895Z,17.86
2019-05-21T20:50:38.308Z,17.86
2019-05-21T20:53:09.480Z,17.91
2019-05-21T20:55:38.423Z,17.95
2019-05-21T20:58:08.531Z,17.69
2019-05-21T21:00:38.674Z,17.57
2019-05-21T21:03:10.221Z,17.58
2019-05-21T21:05:39.374Z,17.67
2019-05-21T21:08:08.552Z,17.75
2019-05-21T21:10:38.024Z,17.69
2019-05-21T21:13:08.501Z,17.53
2019-05-21T21:15:37.435Z,17.30
2019-05-21T21:18:06.547Z,17.13
2019-05-21T21:20:35.206Z,17.09
2019-05-21T21:23:03.676Z,17.07
2019-05-21T21:25:32.511Z,17.14
2019-05-21T21:28:01.223Z,17.02
2019-05-21T21:30:29.986Z,17.00
2019-05-21T21:33:00.090Z,16.91
2019-05-21T21:35:28.644Z,16.85
2019-05-21T21:37:57.181Z,16.86
2019-05-21T21:40:26.210Z,16.94
2019-05-21T21:42:54.903Z,17.02
2019-05-21T21:45:23.465Z,17.02
2019-05-21T21:47:52.196Z,17.05
2019-05-21T21:50:21.567Z,17.14
2019-05-21T21:52:50.383Z,17.15
2019-05-21T21:55:18.951Z,17.08
2019-05-21T21:57:47.428Z,17.00
2019-05-21T22:00:43.148Z,16.86
2019-05-21T22:03:12.447Z,17.03
2019-05-21T22:05:41.480Z,16.89
2019-05-21T22:08:10.321Z,17.00
2019-05-21T22:10:39.699Z,16.94
2019-05-21T22:13:08.406Z,16.93
2019-05-21T22:15:37.373Z,17.03
2019-05-21T22:18:06.311Z,16.93
2019-05-21T22:20:35.052Z,16.94
2019-05-21T22:23:03.845Z,16.98
2019-05-21T22:25:32.536Z,16.94
2019-05-21T22:28:01.165Z,16.93
2019-05-21T22:30:29.701Z,16.90
2019-05-21T22:32:58.202Z,16.85
2019-05-21T22:35:26.675Z,16.84
2019-05-21T22:37:55.188Z,16.75
2019-05-21T22:40:23.668Z,16.82
2019-05-21T22:42:52.179Z,16.80
2019-05-21T22:45:20.790Z,16.48
2019-05-21T22:47:49.357Z,16.60
2019-05-21T22:50:18.174Z,16.61
2019-05-21T22:52:46.750Z,16.64
2019-05-21T22:55:15.302Z,16.66
2019-05-21T22:57:43.802Z,16.53
2019-05-21T23:00:13.475Z,16.51
2019-05-21T23:02:42.636Z,16.50
2019-05-21T23:05:11.514Z,16.63
2019-05-21T23:07:40.147Z,16.63
2019-05-21T23:10:10.942Z,16.46
2019-05-21T23:12:40.167Z,16.28
2019-05-21T23:15:23.655Z,16.44
2019-05-21T23:17:40.311Z,16.61
2019-05-21T23:20:12.414Z,16.51
2019-05-21T23:22:42.901Z,16.54
2019-05-21T23:25:12.518Z,16.53
2019-05-21T23:27:41.740Z,16.47
2019-05-21T23:30:14.973Z,16.26
2019-05-21T23:32:44.704Z,16.41
2019-05-21T23:35:14.392Z,16.43
2019-05-21T23:37:44.731Z,16.51
2019-05-21T23:40:15.611Z,16.52
2019-05-21T23:42:44.192Z,16.67
2019-05-21T23:45:12.955Z,16.58
2019-05-21T23:47:41.560Z,16.50
2019-05-21T23:50:12.955Z,16.47
2019-05-21T23:52:41.798Z,16.56
2019-05-21T23:55:10.803Z,16.58
2019-05-21T23:57:40.461Z,16.46
